createdAt,value
2018-07-06T00:02:27.443Z,7.03
2018-07-06T00:05:06.964Z,7.17
2018-07-06T00:07:46.369Z,7.77
2018-07-06T00:10:26.008Z,7.70
2018-07-06T00:13:06.316Z,6.27
2018-07-06T00:15:46.028Z,7.40
2018-07-06T00:18:25.594Z,7.43
2018-07-06T00:21:05.301Z,7.93
2018-07-06T00:23:44.759Z,6.60
2018-07-06T00:26:24.305Z,7.03
2018-07-06T00:29:03.883Z,5.97
2018-07-06T00:31:44.059Z,6.90
2018-07-06T00:34:23.436Z,7.70
2018-07-06T00:37:02.960Z,5.33
2018-07-06T00:39:42.371Z,6.33
2018-07-06T00:42:21.961Z,6.87
2018-07-06T00:45:01.444Z,7.70
2018-07-06T00:47:41.043Z,6.40
2018-07-06T00:50:20.598Z,6.65
2018-07-06T00:53:00.240Z,6.93
2018-07-06T00:55:39.801Z,7.00
2018-07-06T00:58:23.449Z,6.97
2018-07-06T01:01:03.191Z,5.60
2018-07-06T01:03:42.962Z,6.70
2018-07-06T01:06:22.588Z,6.70
2018-07-06T01:09:02.044Z,7.73
2018-07-06T01:11:41.517Z,7.73
2018-07-06T01:14:21.169Z,6.67
2018-07-06T01:17:00.912Z,6.63
2018-07-06T01:19:40.529Z,6.70
2018-07-06T01:22:19.950Z,6.75
2018-07-06T01:25:00.503Z,7.23
2018-07-06T01:27:40.035Z,6.97
2018-07-06T01:30:19.493Z,6.50
2018-07-06T01:32:59.021Z,6.37
2018-07-06T01:35:38.653Z,7.07
2018-07-06T01:38:18.228Z,7.37
2018-07-06T01:40:58.092Z,6.40
2018-07-06T01:43:37.535Z,7.23
2018-07-06T01:46:17.308Z,7.08
2018-07-06T01:48:56.875Z,7.80
2018-07-06T01:51:36.585Z,7.63
2018-07-06T01:54:16.216Z,7.50
2018-07-06T01:56:55.710Z,6.30
2018-07-06T01:59:35.318Z,6.93
2018-07-06T02:02:14.855Z,6.93
2018-07-06T02:04:54.342Z,7.20
2018-07-06T02:07:34.031Z,6.40
2018-07-06T02:10:13.612Z,7.20
2018-07-06T02:12:53.232Z,7.90
2018-07-06T02:15:32.872Z,7.67
2018-07-06T02:18:12.504Z,7.10
2018-07-06T02:20:52.080Z,6.50
2018-07-06T02:23:31.982Z,6.60
2018-07-06T02:26:11.531Z,6.90
2018-07-06T02:28:51.464Z,6.27
2018-07-06T02:31:31.087Z,6.70
2018-07-06T02:34:11.345Z,6.85
2018-07-06T02:36:50.939Z,6.50
2018-07-06T02:39:30.851Z,6.60
2018-07-06T02:42:10.425Z,6.42
2018-07-06T02:44:50.115Z,6.87
2018-07-06T02:47:29.606Z,7.07
2018-07-06T02:50:09.146Z,6.67
2018-07-06T02:52:48.688Z,6.77
2018-07-06T02:55:28.347Z,6.70
2018-07-06T02:58:07.965Z,7.50
2018-07-06T03:00:47.520Z,7.23
2018-07-06T03:03:27.155Z,6.63
2018-07-06T03:06:06.796Z,6.97
2018-07-06T03:08:46.384Z,7.27
2018-07-06T03:11:26.055Z,6.50
2018-07-06T03:14:05.537Z,7.10
2018-07-06T03:16:45.156Z,7.87
2018-07-06T03:19:24.816Z,6.90
2018-07-06T03:22:04.444Z,6.33
2018-07-06T03:24:43.914Z,8.00
2018-07-06T03:27:23.536Z,7.67
2018-07-06T03:30:03.205Z,6.70
2018-07-06T03:32:42.813Z,5.50
2018-07-06T03:35:22.427Z,7.57
2018-07-06T03:38:02.173Z,6.50
2018-07-06T03:40:41.832Z,7.10
2018-07-06T03:43:21.528Z,6.00
2018-07-06T03:46:01.376Z,6.90
2018-07-06T03:48:41.009Z,6.60
2018-07-06T03:51:20.838Z,6.60
2018-07-06T03:54:00.539Z,7.20
2018-07-06T03:56:40.005Z,7.13
2018-07-06T03:59:19.561Z,6.47
2018-07-06T04:01:59.161Z,6.63
2018-07-06T04:04:38.701Z,7.57
2018-07-06T04:07:18.244Z,6.53
2018-07-06T04:09:57.823Z,6.60
2018-07-06T04:12:37.578Z,6.22
2018-07-06T04:15:17.282Z,7.10
2018-07-06T04:17:56.936Z,6.47
2018-07-06T04:20:37.220Z,6.17
2018-07-06T04:23:16.840Z,5.87
2018-07-06T04:25:56.556Z,6.23
2018-07-06T04:28:36.224Z,6.00
2018-07-06T04:31:15.748Z,6.10
2018-07-06T04:33:55.316Z,5.43
2018-07-06T04:36:34.801Z,6.30
2018-07-06T04:39:14.266Z,5.07
2018-07-06T04:41:53.946Z,5.17
2018-07-06T04:44:33.438Z,5.80
2018-07-06T04:47:13.013Z,5.97
2018-07-06T04:49:52.410Z,5.40
2018-07-06T04:52:31.916Z,5.57
2018-07-06T04:55:11.562Z,5.27
2018-07-06T04:57:51.206Z,4.60
2018-07-06T05:00:30.716Z,5.53
2018-07-06T05:03:10.217Z,5.17
2018-07-06T05:05:49.737Z,5.50
2018-07-06T05:08:29.339Z,5.30
2018-07-06T05:11:08.847Z,5.30
2018-07-06T05:13:48.381Z,5.62
2018-07-06T05:16:28.016Z,5.20
2018-07-06T05:19:07.731Z,6.03
2018-07-06T05:21:47.440Z,5.12
2018-07-06T05:24:27.045Z,4.70
2018-07-06T05:27:06.683Z,5.53
2018-07-06T05:29:46.291Z,5.60
2018-07-06T05:32:25.926Z,5.20
2018-07-06T05:35:05.496Z,5.00
2018-07-06T05:37:45.087Z,5.93
2018-07-06T05:40:24.568Z,5.10
2018-07-06T05:43:04.209Z,7.33
2018-07-06T05:45:43.651Z,5.30
2018-07-06T05:48:23.156Z,5.43
2018-07-06T05:51:02.529Z,7.60
2018-07-06T05:53:42.194Z,7.00
2018-07-06T05:56:21.604Z,6.33
2018-07-06T06:02:11.218Z,7.70
2018-07-06T06:04:50.800Z,7.67
2018-07-06T06:07:23.897Z,9.67
2018-07-06T06:09:52.388Z,10.13
2018-07-06T06:12:21.173Z,11.23
2018-07-06T06:14:50.511Z,9.75
2018-07-06T06:17:18.896Z,11.43
2018-07-06T06:19:47.344Z,11.27
2018-07-06T06:22:15.812Z,11.00
2018-07-06T06:24:44.222Z,11.28
2018-07-06T06:27:12.652Z,10.60
2018-07-06T06:29:41.123Z,9.73
2018-07-06T06:32:10.117Z,9.80
2018-07-06T06:34:38.588Z,9.40
2018-07-06T06:37:07.035Z,9.80
2018-07-06T06:39:35.489Z,10.70
2018-07-06T06:42:03.964Z,9.37
2018-07-06T06:44:32.423Z,9.80
2018-07-06T06:47:01.056Z,9.07
2018-07-06T06:49:31.188Z,10.20
2018-07-06T06:52:00.603Z,9.73
2018-07-06T06:54:30.198Z,8.47
2018-07-06T06:56:58.654Z,9.27
2018-07-06T06:59:27.157Z,9.30
2018-07-06T07:01:55.629Z,10.53
2018-07-06T07:04:24.612Z,10.33
2018-07-06T07:06:53.180Z,11.23
2018-07-06T07:09:21.965Z,9.23
2018-07-06T07:11:50.669Z,9.93
2018-07-06T07:14:19.166Z,10.73
2018-07-06T07:16:47.652Z,12.37
2018-07-06T07:19:16.115Z,11.27
2018-07-06T07:21:44.634Z,9.63
2018-07-06T07:24:13.106Z,9.20
2018-07-06T07:26:41.571Z,9.73
2018-07-06T07:29:10.033Z,10.08
2018-07-06T07:31:38.590Z,9.90
2018-07-06T07:34:07.309Z,10.50
2018-07-06T07:36:35.842Z,9.23
2018-07-06T07:39:05.241Z,9.93
2018-07-06T07:41:33.692Z,9.17
2018-07-06T07:44:02.141Z,8.13
2018-07-06T07:46:30.829Z,9.13
2018-07-06T07:48:59.278Z,9.40
2018-07-06T07:52:11.380Z,9.17
2018-07-06T07:54:47.837Z,8.80
2018-07-06T07:57:16.503Z,10.00
2018-07-06T07:59:45.540Z,7.90
2018-07-06T08:02:13.984Z,9.07
2018-07-06T08:04:42.767Z,8.00
2018-07-06T08:07:11.223Z,8.33
2018-07-06T08:09:39.722Z,8.53
2018-07-06T08:12:08.179Z,8.07
2018-07-06T08:14:37.386Z,8.33
2018-07-06T08:17:06.255Z,7.40
2018-07-06T08:19:34.724Z,8.27
2018-07-06T08:22:03.223Z,7.80
2018-07-06T08:24:31.645Z,7.10
2018-07-06T08:27:00.124Z,8.50
2018-07-06T08:29:28.580Z,8.10
2018-07-06T08:31:57.019Z,8.30
2018-07-06T08:34:36.577Z,7.83
2018-07-06T08:37:46.477Z,8.10
2018-07-06T08:40:15.192Z,6.83
2018-07-06T08:42:45.072Z,7.05
2018-07-06T08:45:14.116Z,6.83
2018-07-06T08:47:43.375Z,5.47
2018-07-06T08:50:11.801Z,5.93
2018-07-06T08:52:41.379Z,6.50
2018-07-06T08:55:09.838Z,6.13
2018-07-06T08:57:39.164Z,5.60
2018-07-06T09:00:08.790Z,5.33
2018-07-06T09:02:37.311Z,6.13
2018-07-06T09:05:06.632Z,6.57
2018-07-06T09:07:35.120Z,6.00
2018-07-06T09:10:03.846Z,5.60
2018-07-06T09:12:32.439Z,4.97
2018-07-06T09:15:01.543Z,5.97
2018-07-06T09:17:30.122Z,4.70
2018-07-06T09:19:59.708Z,5.83
2018-07-06T09:22:27.891Z,5.43
2018-07-06T09:24:57.845Z,6.40
2018-07-06T09:27:26.308Z,6.23
2018-07-06T09:29:54.784Z,5.97
2018-07-06T09:32:23.191Z,5.77
2018-07-06T09:34:52.558Z,6.92
2018-07-06T09:37:21.017Z,7.50
2018-07-06T09:39:50.250Z,7.40
2018-07-06T09:42:19.010Z,6.70
2018-07-06T09:44:47.448Z,7.30
2018-07-06T09:47:15.998Z,6.55
2018-07-06T09:49:44.435Z,6.60
2018-07-06T09:52:12.998Z,5.63
2018-07-06T09:54:41.451Z,5.47
2018-07-06T09:57:09.872Z,5.65
2018-07-06T09:59:38.557Z,6.83
2018-07-06T10:02:07.015Z,6.40
2018-07-06T10:04:35.553Z,5.40
2018-07-06T10:07:04.038Z,5.10
2018-07-06T10:09:32.649Z,5.10
2018-07-06T10:12:01.070Z,5.72
2018-07-06T10:14:29.567Z,5.22
2018-07-06T10:16:58.275Z,6.17
2018-07-06T10:19:26.742Z,5.30
2018-07-06T10:21:55.367Z,5.30
2018-07-06T10:24:23.879Z,5.40
2018-07-06T10:26:52.320Z,4.87
2018-07-06T10:30:28.872Z,5.37
2018-07-06T10:32:57.353Z,5.10
2018-07-06T10:35:25.852Z,5.53
2018-07-06T10:37:54.582Z,4.53
2018-07-06T10:40:23.075Z,6.07
2018-07-06T10:42:51.467Z,4.60
2018-07-06T10:45:19.937Z,4.40
2018-07-06T10:47:48.354Z,5.13
2018-07-06T10:50:16.810Z,4.37
2018-07-06T10:52:45.264Z,5.10
2018-07-06T10:55:13.703Z,4.37
2018-07-06T10:57:42.267Z,4.78
2018-07-06T11:00:10.740Z,4.50
2018-07-06T11:02:39.136Z,4.57
2018-07-06T11:05:07.622Z,3.97
2018-07-06T11:07:36.084Z,4.50
2018-07-06T11:10:05.079Z,5.30
2018-07-06T11:12:33.492Z,3.90
2018-07-06T11:15:01.911Z,4.60
2018-07-06T11:17:30.372Z,3.70
2018-07-06T11:19:58.807Z,4.13
2018-07-06T11:22:27.424Z,4.62
2018-07-06T11:24:55.855Z,4.40
2018-07-06T11:27:24.287Z,3.90
2018-07-06T11:29:52.732Z,4.50
2018-07-06T11:32:21.204Z,4.03
2018-07-06T11:34:49.774Z,3.40
2018-07-06T11:37:18.723Z,3.30
2018-07-06T11:39:47.351Z,3.77
2018-07-06T11:42:16.070Z,3.47
2018-07-06T11:44:44.672Z,4.87
2018-07-06T11:47:13.094Z,3.77
2018-07-06T11:49:41.660Z,4.13
2018-07-06T11:52:10.083Z,4.47
2018-07-06T11:54:38.507Z,4.00
2018-07-06T11:57:06.915Z,3.87
2018-07-06T11:59:35.478Z,4.80
2018-07-06T12:02:03.923Z,4.63
2018-07-06T12:04:32.612Z,4.50
2018-07-06T12:07:01.011Z,4.70
2018-07-06T12:09:29.463Z,3.73
2018-07-06T12:11:57.887Z,4.40
2018-07-06T12:14:26.352Z,4.03
2018-07-06T12:16:54.780Z,3.80
2018-07-06T12:19:23.187Z,3.87
2018-07-06T12:21:51.648Z,3.80
2018-07-06T12:24:20.088Z,3.60
2018-07-06T12:26:48.503Z,4.63
2018-07-06T12:29:16.975Z,4.33
2018-07-06T12:31:45.400Z,3.53
2018-07-06T12:34:13.781Z,3.40
2018-07-06T12:36:42.251Z,4.37
2018-07-06T12:39:10.663Z,3.93
2018-07-06T12:41:39.194Z,3.87
2018-07-06T12:44:07.589Z,3.63
2018-07-06T12:46:36.034Z,3.60
2018-07-06T12:49:04.557Z,3.23
2018-07-06T12:51:33.019Z,3.60
2018-07-06T12:54:01.711Z,3.30
2018-07-06T12:56:30.151Z,3.30
2018-07-06T12:58:58.575Z,3.90
2018-07-06T13:01:27.295Z,3.52
2018-07-06T13:03:55.708Z,4.30
2018-07-06T13:06:24.119Z,4.20
2018-07-06T13:08:52.563Z,5.23
2018-07-06T13:11:20.992Z,5.10
2018-07-06T13:13:49.464Z,5.83
2018-07-06T13:16:17.899Z,6.53
2018-07-06T13:18:46.300Z,6.05
2018-07-06T13:21:14.736Z,7.30
2018-07-06T13:23:43.194Z,7.20
2018-07-06T13:26:11.613Z,7.20
2018-07-06T13:28:40.063Z,8.40
2018-07-06T13:31:08.511Z,7.63
2018-07-06T13:33:36.998Z,7.40
2018-07-06T13:36:05.596Z,6.80
2018-07-06T13:38:34.082Z,8.95
2018-07-06T13:41:02.519Z,8.27
2018-07-06T13:43:30.947Z,7.70
2018-07-06T13:46:00.765Z,8.33
2018-07-06T13:48:29.778Z,8.37
2018-07-06T13:50:58.224Z,8.83
2018-07-06T13:53:26.660Z,8.77
2018-07-06T13:55:55.084Z,9.63
2018-07-06T13:58:24.214Z,12.15
2018-07-06T14:00:52.649Z,10.17
2018-07-06T14:03:21.084Z,9.80
2018-07-06T14:05:49.559Z,9.57
2018-07-06T14:08:18.077Z,10.03
2018-07-06T14:10:46.590Z,8.07
2018-07-06T14:13:15.096Z,19.43
2018-07-06T14:15:43.543Z,9.33
2018-07-06T14:18:11.991Z,10.27
2018-07-06T14:20:40.463Z,10.15
2018-07-06T14:23:08.901Z,10.63
2018-07-06T14:25:37.678Z,10.32
2018-07-06T14:28:06.151Z,9.90
2018-07-06T14:30:34.559Z,11.07
2018-07-06T14:33:02.982Z,10.03
2018-07-06T14:35:31.640Z,11.63
2018-07-06T14:38:00.111Z,10.80
2018-07-06T14:40:28.586Z,11.50
2018-07-06T14:42:57.037Z,12.03
2018-07-06T14:45:25.521Z,12.35
2018-07-06T14:47:53.976Z,11.17
2018-07-06T14:50:22.471Z,12.10
2018-07-06T14:52:50.956Z,11.68
2018-07-06T14:55:19.497Z,15.10
2018-07-06T14:57:47.960Z,17.60
2018-07-06T15:00:16.426Z,9.10
2018-07-06T15:02:44.900Z,9.50
2018-07-06T15:05:13.356Z,8.20
2018-07-06T15:07:42.150Z,8.93
2018-07-06T15:10:11.184Z,8.77
2018-07-06T15:12:39.665Z,11.07
2018-07-06T15:15:08.120Z,9.10
2018-07-06T15:17:37.031Z,6.20
2018-07-06T15:20:05.500Z,7.17
2018-07-06T15:22:34.946Z,7.90
2018-07-06T15:25:03.517Z,6.70
2018-07-06T15:27:32.028Z,5.50
2018-07-06T15:30:00.507Z,5.20
2018-07-06T15:32:28.957Z,5.47
2018-07-06T15:34:57.399Z,5.57
2018-07-06T15:37:25.916Z,5.03
2018-07-06T15:39:54.383Z,6.73
2018-07-06T15:42:22.790Z,3.93
2018-07-06T15:44:51.264Z,6.10
2018-07-06T15:47:19.792Z,6.10
2018-07-06T15:49:48.210Z,4.90
2018-07-06T15:52:16.895Z,5.03
2018-07-06T15:54:45.333Z,6.00
2018-07-06T15:57:14.111Z,6.20
2018-07-06T15:59:42.535Z,5.63
2018-07-06T16:02:11.086Z,5.47
2018-07-06T16:04:39.595Z,5.70
2018-07-06T16:07:08.017Z,4.67
2018-07-06T16:09:36.684Z,7.90
2018-07-06T16:12:05.120Z,5.73
2018-07-06T16:14:33.559Z,6.90
2018-07-06T16:17:02.003Z,6.30
2018-07-06T16:19:30.418Z,6.10
2018-07-06T16:21:58.881Z,6.35
2018-07-06T16:24:27.360Z,7.90
2018-07-06T16:26:55.807Z,8.23
2018-07-06T16:29:24.237Z,7.70
2018-07-06T16:31:52.746Z,7.80
2018-07-06T16:34:21.180Z,8.20
2018-07-06T16:36:49.677Z,8.53
2018-07-06T16:39:18.295Z,9.50
2018-07-06T16:41:46.720Z,9.40
2018-07-06T16:44:15.158Z,10.83
2018-07-06T16:46:44.411Z,9.23
2018-07-06T16:49:12.835Z,10.80
2018-07-06T16:51:41.319Z,11.80
2018-07-06T16:54:09.725Z,5.95
2018-07-06T16:56:38.187Z,5.63
2018-07-06T16:59:06.874Z,5.43
2018-07-06T17:01:35.296Z,5.60
2018-07-06T17:04:04.006Z,4.97
2018-07-06T17:06:32.446Z,5.10
2018-07-06T17:09:01.272Z,5.70
2018-07-06T17:11:30.017Z,5.40
2018-07-06T17:13:58.439Z,6.10
2018-07-06T17:16:26.936Z,5.70
2018-07-06T17:18:55.339Z,6.60
2018-07-06T17:21:23.804Z,7.20
2018-07-06T17:23:52.643Z,6.77
2018-07-06T17:26:21.384Z,6.90
2018-07-06T17:28:49.935Z,7.90
2018-07-06T17:31:18.568Z,8.43
2018-07-06T17:33:47.228Z,8.93
2018-07-06T17:36:15.643Z,7.63
2018-07-06T17:38:44.067Z,8.30
2018-07-06T17:41:12.765Z,8.07
2018-07-06T17:43:41.197Z,8.47
2018-07-06T17:46:09.643Z,7.57
2018-07-06T17:48:38.132Z,8.17
2018-07-06T17:51:06.748Z,8.00
2018-07-06T17:53:35.292Z,8.40
2018-07-06T17:56:03.755Z,7.90
2018-07-06T17:58:32.201Z,8.43
2018-07-06T18:01:00.860Z,6.80
2018-07-06T18:03:29.315Z,8.30
2018-07-06T18:05:58.079Z,6.57
2018-07-06T18:08:26.703Z,6.57
2018-07-06T18:10:55.394Z,6.10
2018-07-06T18:13:23.835Z,7.20
2018-07-06T18:15:52.286Z,18.53
2018-07-06T18:18:21.081Z,6.47
2018-07-06T18:20:49.633Z,13.37
2018-07-06T18:23:18.220Z,6.30
2018-07-06T18:25:47.002Z,6.80
2018-07-06T18:28:15.459Z,7.30
2018-07-06T18:30:44.095Z,9.03
2018-07-06T18:33:12.567Z,5.50
2018-07-06T18:35:40.963Z,6.53
2018-07-06T18:38:09.416Z,5.90
2018-07-06T18:40:37.890Z,6.30
2018-07-06T18:43:06.336Z,5.83
2018-07-06T18:45:34.842Z,8.60
2018-07-06T18:48:03.312Z,9.93
2018-07-06T18:50:31.763Z,8.93
2018-07-06T18:53:00.500Z,7.62
2018-07-06T18:55:28.964Z,8.60
2018-07-06T18:57:57.384Z,8.03
2018-07-06T19:00:26.203Z,9.50
2018-07-06T19:02:54.711Z,10.17
2018-07-06T19:06:26.039Z,8.33
2018-07-06T19:08:54.548Z,10.40
2018-07-06T19:11:22.984Z,9.97
2018-07-06T19:13:51.427Z,13.80
2018-07-06T19:16:19.866Z,12.40
2018-07-06T19:18:48.428Z,13.10
2018-07-06T19:21:16.904Z,14.33
2018-07-06T19:23:45.370Z,13.40
2018-07-06T19:26:13.830Z,15.40
2018-07-06T19:28:42.295Z,15.77
2018-07-06T19:31:10.754Z,16.03
2018-07-06T19:33:39.647Z,17.60
2018-07-06T19:36:08.088Z,19.07
2018-07-06T19:38:36.727Z,20.77
2018-07-06T19:41:06.023Z,20.95
2018-07-06T19:43:34.723Z,22.60
2018-07-06T19:46:03.385Z,23.33
2018-07-06T19:48:32.766Z,23.50
2018-07-06T19:51:01.418Z,25.67
2018-07-06T19:53:29.816Z,24.27
2018-07-06T19:55:58.243Z,23.70
2018-07-06T19:58:26.819Z,23.90
2018-07-06T20:00:55.224Z,22.07
2018-07-06T20:03:23.627Z,21.67
2018-07-06T20:05:52.031Z,22.07
2018-07-06T20:08:20.447Z,22.10
2018-07-06T20:10:48.918Z,22.20
2018-07-06T20:13:17.414Z,19.77
2018-07-06T20:15:45.848Z,20.93
2018-07-06T20:18:14.293Z,21.00
2018-07-06T20:20:42.765Z,20.87
2018-07-06T20:23:11.967Z,21.87
2018-07-06T20:25:40.420Z,19.20
2018-07-06T20:28:08.971Z,19.50
2018-07-06T20:30:37.386Z,19.03
2018-07-06T20:33:05.825Z,19.43
2018-07-06T20:35:34.247Z,20.50
2018-07-06T20:38:02.696Z,19.30
2018-07-06T20:40:31.139Z,20.03
2018-07-06T20:42:59.546Z,20.07
2018-07-06T20:45:27.992Z,19.33
2018-07-06T20:47:56.415Z,23.17
2018-07-06T20:50:24.848Z,22.10
2018-07-06T20:52:53.954Z,22.97
2018-07-06T20:55:22.377Z,23.67
2018-07-06T20:57:50.810Z,26.10
2018-07-06T21:00:19.305Z,23.37
2018-07-06T21:02:47.751Z,24.67
2018-07-06T21:05:17.088Z,25.50
2018-07-06T21:07:45.487Z,28.07
2018-07-06T21:10:14.248Z,25.90
2018-07-06T21:12:42.681Z,28.10
2018-07-06T21:15:11.145Z,28.57
2018-07-06T21:17:39.570Z,29.10
2018-07-06T21:20:08.018Z,29.60
2018-07-06T21:22:36.463Z,29.97
2018-07-06T21:25:05.109Z,29.67
2018-07-06T21:27:33.536Z,29.75
2018-07-06T21:30:02.190Z,28.43
2018-07-06T21:32:30.681Z,29.30
2018-07-06T21:34:59.134Z,28.83
2018-07-06T21:37:27.584Z,29.50
2018-07-06T21:39:56.027Z,26.73
2018-07-06T21:42:24.460Z,27.97
2018-07-06T21:44:53.337Z,27.60
2018-07-06T21:47:22.123Z,28.12
2018-07-06T21:49:50.565Z,27.30
2018-07-06T21:52:19.024Z,29.27
2018-07-06T21:54:47.431Z,28.63
2018-07-06T21:57:15.893Z,28.07
2018-07-06T21:59:44.324Z,30.83
2018-07-06T22:02:16.007Z,29.63
2018-07-06T22:04:46.223Z,30.03
2018-07-06T22:07:16.452Z,30.07
2018-07-06T22:09:45.427Z,30.20
2018-07-06T22:12:14.722Z,31.37
2018-07-06T22:14:43.147Z,30.47
2018-07-06T22:17:11.615Z,30.97
2018-07-06T22:19:40.048Z,34.38
2018-07-06T22:22:08.503Z,31.70
2018-07-06T22:24:37.287Z,32.50
2018-07-06T22:27:06.164Z,33.07
2018-07-06T22:29:34.576Z,33.20
2018-07-06T22:32:03.044Z,33.70
2018-07-06T22:34:31.647Z,33.33
2018-07-06T22:37:00.080Z,33.03
2018-07-06T22:39:29.212Z,32.42
2018-07-06T22:41:57.664Z,31.60
2018-07-06T22:44:26.115Z,33.10
2018-07-06T22:46:54.559Z,31.77
2018-07-06T22:49:23.006Z,34.60
2018-07-06T22:52:54.049Z,32.50
2018-07-06T22:55:22.508Z,34.53
2018-07-06T22:57:50.978Z,34.47
2018-07-06T23:00:19.461Z,32.97
2018-07-06T23:02:48.179Z,33.00
2018-07-06T23:05:18.960Z,34.40
2018-07-06T23:07:47.700Z,34.57
2018-07-06T23:10:16.159Z,29.87
2018-07-06T23:12:44.629Z,31.40
2018-07-06T23:15:13.091Z,33.60
2018-07-06T23:17:41.485Z,32.38
2018-07-06T23:20:09.956Z,31.17
2018-07-06T23:23:12.977Z,33.83
2018-07-06T23:25:42.880Z,31.23
2018-07-06T23:28:11.413Z,32.07
2018-07-06T23:30:40.025Z,33.63
2018-07-06T23:33:09.555Z,31.47
2018-07-06T23:35:37.984Z,29.80
2018-07-06T23:38:06.488Z,30.33
2018-07-06T23:40:35.031Z,28.60
2018-07-06T23:43:03.516Z,28.17
2018-07-06T23:45:31.980Z,29.30
2018-07-06T23:48:00.463Z,30.00
2018-07-06T23:50:28.904Z,26.00
2018-07-06T23:52:57.328Z,29.20
2018-07-06T23:55:25.796Z,28.10
2018-07-06T23:57:54.247Z,28.97
